Time;durP1;ratioP1;P1;durP2;ratioP2;P2;SDS_P1;SDS_P2;PMS_P1;PMS_P2;Temp;Humidity;BMP_temperature;BMP_pressure;BME280_temperature;BME280_humidity;BME280_pressure;Samples;Min_cycle;Max_cycle;Signal;HPM_P1;HPM_P2
2023/07/22 00:01:20;;;;;;;62.72;6.25;;;;;;;;;;5004588;28;20049;-56
2023/07/22 00:03:45;;;;;;;149.68;11.88;;;;;;;;;;5003036;28;20041;-56
2023/07/22 00:06:11;;;;;;;82.50;7.40;;;;;;;;;;5003354;28;20026;-55
2023/07/22 00:08:37;;;;;;;145.45;11.93;;;;;;;;;;5002081;28;20291;-55
2023/07/22 00:11:02;;;;;;;96.82;8.30;;;;;;;;;;5003659;28;20136;-54
2023/07/22 00:13:27;;;;;;;95.05;8.15;;;;;;;;;;5003080;28;20022;-55
2023/07/22 00:15:56;;;;;;;93.18;8.07;;;;;;;;;;5003155;28;20398;-57
2023/07/22 00:18:22;;;;;;;97.40;8.18;;;;;;;;;;5002860;28;20487;-56
2023/07/22 00:20:47;;;;;;;174.05;45.20;;;;;;;;;;5000961;28;20495;-56
2023/07/22 00:23:12;;;;;;;132.88;25.90;;;;;;;;;;5002790;28;20022;-56
2023/07/22 00:25:38;;;;;;;168.25;13.73;;;;;;;;;;5001649;28;20037;-53
2023/07/22 00:28:06;;;;;;;92.17;7.83;;;;;;;;;;5002066;28;20025;-53
2023/07/22 00:30:31;;;;;;;92.05;9.13;;;;;;;;;;5001449;28;20281;-53
2023/07/22 00:32:56;;;;;;;107.87;11.40;;;;;;;;;;5003582;28;20014;-54
2023/07/22 00:35:22;;;;;;;90.23;7.97;;;;;;;;;;5002540;28;20734;-53
2023/07/22 00:37:47;;;;;;;146.13;11.67;;;;;;;;;;5002688;28;20319;-53
2023/07/22 00:40:12;;;;;;;109.70;9.02;;;;;;;;;;5001867;28;20252;-53
2023/07/22 00:42:38;;;;;;;471.42;314.80;;;;;;;;;;5003065;28;20104;-54
2023/07/22 00:45:03;;;;;;;61.83;9.07;;;;;;;;;;5017112;28;20021;-53
2023/07/22 00:47:29;;;;;;;62.90;7.35;;;;;;;;;;5010110;28;20033;-52
2023/07/22 00:49:54;;;;;;;48.30;5.70;;;;;;;;;;5010163;28;20496;-52
2023/07/22 00:52:19;;;;;;;60.15;6.22;;;;;;;;;;5009736;28;20745;-52
2023/07/22 00:54:44;;;;;;;131.87;10.30;;;;;;;;;;5007113;28;20026;-52
2023/07/22 00:57:11;;;;;;;58.92;5.93;;;;;;;;;;5011051;28;20331;-52
2023/07/22 00:59:37;;;;;;;91.40;7.80;;;;;;;;;;5007786;28;20033;-52
2023/07/22 01:02:02;;;;;;;71.35;7.60;;;;;;;;;;5010560;28;20032;-52
2023/07/22 01:04:28;;;;;;;65.10;6.45;;;;;;;;;;5013727;28;20026;-53
2023/07/22 01:06:54;;;;;;;56.75;6.00;;;;;;;;;;5013053;28;20037;-53
2023/07/22 01:09:19;;;;;;;65.93;6.82;;;;;;;;;;5001035;28;20021;-52
2023/07/22 01:11:44;;;;;;;107.03;9.25;;;;;;;;;;5006267;28;20034;-54
2023/07/22 01:14:09;;;;;;;51.47;5.45;;;;;;;;;;5010383;28;20029;-52
2023/07/22 01:16:35;;;;;;;72.15;7.00;;;;;;;;;;5009141;28;20037;-52
2023/07/22 01:19:00;;;;;;;62.58;11.95;;;;;;;;;;5011487;28;20017;-53
2023/07/22 01:21:26;;;;;;;67.25;6.55;;;;;;;;;;5010022;28;20034;-52
2023/07/22 01:23:52;;;;;;;202.98;96.43;;;;;;;;;;5008052;28;20018;-53
2023/07/22 01:26:17;;;;;;;65.20;11.95;;;;;;;;;;5009457;28;20026;-52
2023/07/22 01:28:43;;;;;;;115.75;9.32;;;;;;;;;;5010413;28;20032;-52
2023/07/22 01:31:08;;;;;;;81.72;7.07;;;;;;;;;;5009855;28;20559;-53
2023/07/22 01:33:33;;;;;;;58.97;6.30;;;;;;;;;;5011143;28;20017;-52
2023/07/22 01:36:00;;;;;;;60.92;6.15;;;;;;;;;;5006210;28;20366;-52
2023/07/22 01:38:25;;;;;;;84.78;7.20;;;;;;;;;;5009742;28;20068;-52
2023/07/22 01:40:50;;;;;;;117.80;9.70;;;;;;;;;;5007196;28;20521;-53
2023/07/22 01:43:15;;;;;;;77.57;7.17;;;;;;;;;;5007270;28;20427;-52
2023/07/22 01:45:42;;;;;;;126.10;10.15;;;;;;;;;;5006720;28;20273;-52
2023/07/22 01:48:07;;;;;;;59.40;6.28;;;;;;;;;;5007314;28;20030;-52
2023/07/22 01:50:32;;;;;;;55.97;6.00;;;;;;;;;;5007978;28;20030;-52
2023/07/22 01:52:57;;;;;;;78.50;7.20;;;;;;;;;;5008336;28;20421;-52
2023/07/22 01:55:23;;;;;;;56.23;6.17;;;;;;;;;;5007718;28;20676;-52
2023/07/22 01:57:48;;;;;;;121.00;10.27;;;;;;;;;;5007251;28;20252;-52
2023/07/22 02:00:15;;;;;;;63.40;6.22;;;;;;;;;;5006521;28;20014;-53
2023/07/22 02:02:40;;;;;;;72.07;6.43;;;;;;;;;;5008393;28;20478;-52
2023/07/22 02:05:06;;;;;;;62.03;6.30;;;;;;;;;;5008347;28;20968;-52
2023/07/22 02:07:31;;;;;;;79.90;7.38;;;;;;;;;;5007058;28;20037;-52
2023/07/22 02:09:56;;;;;;;62.87;6.23;;;;;;;;;;5008079;28;20586;-52
2023/07/22 02:12:21;;;;;;;67.00;6.53;;;;;;;;;;5006720;28;20269;-52
2023/07/22 02:14:46;;;;;;;142.65;11.13;;;;;;;;;;5005241;28;20287;-53
2023/07/22 02:17:12;;;;;;;53.35;6.00;;;;;;;;;;5008220;28;20058;-52
2023/07/22 02:19:37;;;;;;;64.97;6.38;;;;;;;;;;5009303;28;20991;-52
2023/07/22 02:22:03;;;;;;;64.82;6.70;;;;;;;;;;5007302;28;20329;-56
2023/07/22 02:24:28;;;;;;;70.60;6.97;;;;;;;;;;5007236;28;20022;-53
2023/07/22 02:26:54;;;;;;;121.15;10.13;;;;;;;;;;5008029;28;20069;-52
2023/07/22 02:29:19;;;;;;;80.30;7.20;;;;;;;;;;5007153;28;20168;-53
2023/07/22 02:31:46;;;;;;;121.20;10.10;;;;;;;;;;5007107;28;20395;-53
2023/07/22 02:34:11;;;;;;;52.63;5.88;;;;;;;;;;5008108;28;20041;-52
2023/07/22 02:36:36;;;;;;;67.07;6.68;;;;;;;;;;5006836;28;20026;-53
2023/07/22 02:39:03;;;;;;;59.60;6.03;;;;;;;;;;5005060;28;20021;-52
2023/07/22 02:41:28;;;;;;;43.75;5.15;;;;;;;;;;5008126;28;20346;-53
2023/07/22 02:43:53;;;;;;;120.28;10.00;;;;;;;;;;5007222;28;20025;-53
2023/07/22 02:46:18;;;;;;;63.20;6.17;;;;;;;;;;5011043;28;20037;-52
2023/07/22 02:48:44;;;;;;;92.50;8.60;;;;;;;;;;5007851;28;20260;-52
2023/07/22 02:51:10;;;;;;;67.73;6.60;;;;;;;;;;5006335;28;20253;-53
2023/07/22 02:53:38;;;;;;;64.00;6.18;;;;;;;;;;5009043;28;20260;-53
2023/07/22 02:56:04;;;;;;;63.28;6.43;;;;;;;;;;5004764;28;20064;-53
2023/07/22 02:58:30;;;;;;;63.08;6.40;;;;;;;;;;5008761;28;20626;-54
2023/07/22 03:00:57;;;;;;;135.45;17.15;;;;;;;;;;5008047;28;20049;-52
2023/07/22 03:03:23;;;;;;;72.07;7.22;;;;;;;;;;5009369;28;20023;-53
2023/07/22 03:05:48;;;;;;;107.32;9.25;;;;;;;;;;5006097;28;20034;-53
2023/07/22 03:08:13;;;;;;;49.97;5.88;;;;;;;;;;5009139;28;20051;-53
2023/07/22 03:10:38;;;;;;;67.73;6.83;;;;;;;;;;5007619;28;20517;-52
2023/07/22 03:13:04;;;;;;;64.22;6.68;;;;;;;;;;5005152;28;20283;-53
2023/07/22 03:15:29;;;;;;;61.85;6.15;;;;;;;;;;5010718;28;20044;-52
2023/07/22 03:17:59;;;;;;;119.45;10.20;;;;;;;;;;5006566;28;20018;-53
2023/07/22 03:20:24;;;;;;;59.10;6.18;;;;;;;;;;5005888;28;20038;-52
2023/07/22 03:22:50;;;;;;;123.57;10.13;;;;;;;;;;5006699;28;20021;-53
2023/07/22 03:25:16;;;;;;;61.53;6.20;;;;;;;;;;5006607;28;20463;-52
2023/07/22 03:27:42;;;;;;;52.78;5.68;;;;;;;;;;5005538;28;20044;-52
2023/07/22 03:30:08;;;;;;;61.00;6.38;;;;;;;;;;5005125;28;20660;-52
2023/07/22 03:32:33;;;;;;;67.05;6.53;;;;;;;;;;5005113;28;20386;-52
2023/07/22 03:34:58;;;;;;;118.22;9.85;;;;;;;;;;5005602;28;20018;-52
2023/07/22 03:37:24;;;;;;;61.05;6.05;;;;;;;;;;5006091;28;20048;-52
2023/07/22 03:39:50;;;;;;;114.70;9.13;;;;;;;;;;5004472;28;20533;-52
2023/07/22 03:42:15;;;;;;;54.33;5.65;;;;;;;;;;5006037;28;20037;-52
2023/07/22 03:44:41;;;;;;;57.45;5.75;;;;;;;;;;5005148;28;20025;-52
2023/07/22 03:47:06;;;;;;;92.20;7.80;;;;;;;;;;5003876;28;20034;-52
2023/07/22 03:49:31;;;;;;;67.47;5.97;;;;;;;;;;5005949;28;20642;-52
2023/07/22 03:51:56;;;;;;;123.00;10.32;;;;;;;;;;5003979;28;20067;-52
2023/07/22 03:54:22;;;;;;;80.10;7.13;;;;;;;;;;5005162;28;20041;-52
2023/07/22 03:56:47;;;;;;;79.63;7.33;;;;;;;;;;5005111;28;20053;-52
2023/07/22 03:59:12;;;;;;;67.70;6.30;;;;;;;;;;5006742;28;20335;-52
2023/07/22 04:01:37;;;;;;;71.70;6.23;;;;;;;;;;5004492;28;20785;-53
2023/07/22 04:04:03;;;;;;;121.35;9.43;;;;;;;;;;5007149;28;20698;-52
2023/07/22 04:06:28;;;;;;;73.90;6.78;;;;;;;;;;5006653;28;20415;-52
2023/07/22 04:08:53;;;;;;;128.00;10.37;;;;;;;;;;5006968;28;20075;-52
2023/07/22 04:11:18;;;;;;;68.13;6.38;;;;;;;;;;5005863;28;20276;-52
2023/07/22 04:13:44;;;;;;;70.13;6.47;;;;;;;;;;5005676;28;20400;-53
2023/07/22 04:16:09;;;;;;;78.23;6.50;;;;;;;;;;5002632;28;20351;-52
2023/07/22 04:18:34;;;;;;;65.10;6.57;;;;;;;;;;5006774;28;20299;-53
2023/07/22 04:21:00;;;;;;;143.30;11.02;;;;;;;;;;5005907;28;20288;-52
2023/07/22 04:23:26;;;;;;;88.35;7.35;;;;;;;;;;5006164;28;20036;-52
2023/07/22 04:25:51;;;;;;;112.63;9.43;;;;;;;;;;5004209;28;20124;-52
2023/07/22 04:28:16;;;;;;;48.25;5.18;;;;;;;;;;5006268;28;20071;-52
2023/07/22 04:30:41;;;;;;;77.73;6.57;;;;;;;;;;5007473;28;20392;-53
2023/07/22 04:33:10;;;;;;;67.73;6.27;;;;;;;;;;5004583;28;20639;-53
2023/07/22 04:35:37;;;;;;;70.13;6.38;;;;;;;;;;5006432;28;20264;-52
2023/07/22 04:38:03;;;;;;;145.30;11.18;;;;;;;;;;5003931;28;20534;-52
2023/07/22 04:40:28;;;;;;;63.88;6.20;;;;;;;;;;5005189;28;20034;-52
2023/07/22 04:42:53;;;;;;;110.50;8.93;;;;;;;;;;5006649;28;20033;-53
2023/07/22 04:45:18;;;;;;;77.80;6.70;;;;;;;;;;5005620;28;20021;-53
2023/07/22 04:47:46;;;;;;;69.10;6.00;;;;;;;;;;5006030;28;20064;-53
2023/07/22 04:50:12;;;;;;;53.75;5.50;;;;;;;;;;5005086;28;20272;-53
2023/07/22 04:52:37;;;;;;;81.88;7.25;;;;;;;;;;5006800;28;20037;-53
2023/07/22 04:55:08;;;;;;;117.70;11.13;;;;;;;;;;5004619;28;20052;-54
2023/07/22 04:57:41;;;;;;;65.22;6.18;;;;;;;;;;5004809;28;20038;-53
2023/07/22 05:00:09;;;;;;;102.70;8.65;;;;;;;;;;5004762;28;20018;-53
2023/07/22 05:02:34;;;;;;;56.40;5.63;;;;;;;;;;5004891;28;20028;-52
2023/07/22 05:04:59;;;;;;;119.93;9.38;;;;;;;;;;5004752;28;20287;-52
2023/07/22 05:07:25;;;;;;;66.73;6.03;;;;;;;;;;5004021;28;20038;-57
2023/07/22 05:09:51;;;;;;;110.80;33.60;;;;;;;;;;5001629;28;20261;-52
2023/07/22 05:12:16;;;;;;;66.03;6.05;;;;;;;;;;5004816;28;20326;-52
2023/07/22 05:14:42;;;;;;;53.28;5.50;;;;;;;;;;5005140;28;20077;-52
2023/07/22 05:17:07;;;;;;;109.57;9.07;;;;;;;;;;5003325;28;20103;-53
2023/07/22 05:19:32;;;;;;;73.87;6.27;;;;;;;;;;5005981;28;20615;-53
2023/07/22 05:21:57;;;;;;;88.90;7.43;;;;;;;;;;5002906;28;20281;-53
2023/07/22 05:24:23;;;;;;;56.73;5.97;;;;;;;;;;5004840;28;20364;-52
2023/07/22 05:26:48;;;;;;;99.47;31.73;;;;;;;;;;5004515;28;20790;-52
2023/07/22 05:29:13;;;;;;;82.77;35.53;;;;;;;;;;5003861;28;20292;-52
2023/07/22 05:31:38;;;;;;;61.53;6.03;;;;;;;;;;5008510;28;20272;-53
2023/07/22 05:34:04;;;;;;;105.10;10.52;;;;;;;;;;5006196;28;20260;-52
2023/07/22 05:36:29;;;;;;;123.15;70.85;;;;;;;;;;5009301;28;20022;-53
2023/07/22 05:38:54;;;;;;;393.90;309.65;;;;;;;;;;5007461;28;20388;-52
2023/07/22 05:41:20;;;;;;;117.13;70.50;;;;;;;;;;5008614;28;20045;-53
2023/07/22 05:43:45;;;;;;;111.80;57.83;;;;;;;;;;5010049;28;20245;-52
2023/07/22 05:46:10;;;;;;;115.23;62.23;;;;;;;;;;5007360;28;21034;-52
2023/07/22 05:48:35;;;;;;;145.37;53.30;;;;;;;;;;5007441;28;20646;-53
2023/07/22 05:51:00;;;;;;;143.43;10.82;;;;;;;;;;5007474;28;20734;-52
2023/07/22 05:53:26;;;;;;;56.67;5.57;;;;;;;;;;5009195;28;20087;-52
2023/07/22 05:55:51;;;;;;;101.32;37.72;;;;;;;;;;5007570;28;20280;-52
2023/07/22 05:58:17;;;;;;;71.73;6.37;;;;;;;;;;5006815;28;20009;-52
2023/07/22 06:00:42;;;;;;;53.60;6.00;;;;;;;;;;5007013;28;20033;-52
2023/07/22 06:03:08;;;;;;;139.35;16.30;;;;;;;;;;5005717;28;20095;-53
2023/07/22 06:05:34;;;;;;;90.90;37.67;;;;;;;;;;5007065;28;20040;-52
2023/07/22 06:07:59;;;;;;;120.75;11.23;;;;;;;;;;5006845;28;20032;-52
2023/07/22 06:10:24;;;;;;;106.25;37.00;;;;;;;;;;5006505;28;20099;-53
2023/07/22 06:12:50;;;;;;;67.03;15.40;;;;;;;;;;5009094;28;20030;-54
2023/07/22 06:15:15;;;;;;;60.93;7.20;;;;;;;;;;5006560;28;20241;-53
2023/07/22 06:17:40;;;;;;;55.10;5.50;;;;;;;;;;5008703;28;20257;-54
2023/07/22 06:20:06;;;;;;;108.18;9.57;;;;;;;;;;5006779;28;20252;-55
2023/07/22 06:22:31;;;;;;;66.05;6.72;;;;;;;;;;5008503;28;20041;-54
2023/07/22 06:24:56;;;;;;;104.43;29.63;;;;;;;;;;5007352;28;20076;-53
2023/07/22 06:27:21;;;;;;;56.20;5.87;;;;;;;;;;5006709;28;20268;-54
2023/07/22 06:29:47;;;;;;;55.42;18.20;;;;;;;;;;5008353;28;20257;-55
2023/07/22 06:32:12;;;;;;;112.17;9.63;;;;;;;;;;5007531;28;20030;-53
2023/07/22 06:34:37;;;;;;;77.63;8.13;;;;;;;;;;5007566;28;20438;-54
2023/07/22 06:37:03;;;;;;;106.72;9.25;;;;;;;;;;5005881;28;20030;-54
2023/07/22 06:39:28;;;;;;;61.25;6.38;;;;;;;;;;5009663;28;20037;-54
2023/07/22 06:41:53;;;;;;;79.22;7.40;;;;;;;;;;5006415;28;20029;-54
2023/07/22 06:44:18;;;;;;;114.13;90.07;;;;;;;;;;5007085;28;20511;-53
2023/07/22 06:46:44;;;;;;;52.37;5.30;;;;;;;;;;5008049;28;20029;-53
2023/07/22 06:49:10;;;;;;;144.07;11.65;;;;;;;;;;5005962;28;20253;-53
2023/07/22 06:51:35;;;;;;;64.55;6.65;;;;;;;;;;5007555;28;20116;-53
2023/07/22 06:54:01;;;;;;;102.60;9.73;;;;;;;;;;5003982;28;20018;-53
2023/07/22 06:56:27;;;;;;;72.45;7.30;;;;;;;;;;5007018;28;20912;-53
2023/07/22 06:58:52;;;;;;;69.63;6.63;;;;;;;;;;5006211;28;20112;-53
2023/07/22 07:01:17;;;;;;;49.70;5.73;;;;;;;;;;5005122;28;20269;-54
2023/07/22 07:03:42;;;;;;;89.23;19.70;;;;;;;;;;5010444;28;20264;-53
2023/07/22 07:06:07;;;;;;;105.93;10.10;;;;;;;;;;5004670;28;20458;-54
2023/07/22 07:08:33;;;;;;;68.40;6.50;;;;;;;;;;5006693;28;20022;-53
2023/07/22 07:10:59;;;;;;;115.18;20.45;;;;;;;;;;5005303;28;20875;-53
2023/07/22 07:13:24;;;;;;;57.58;10.25;;;;;;;;;;5006597;28;20145;-54
2023/07/22 07:15:49;;;;;;;69.70;10.40;;;;;;;;;;5006136;28;20503;-54
2023/07/22 07:18:15;;;;;;;120.63;12.88;;;;;;;;;;5005859;28;20046;-54
2023/07/22 07:20:40;;;;;;;54.80;6.18;;;;;;;;;;5007998;28;20140;-54
2023/07/22 07:23:05;;;;;;;118.70;10.43;;;;;;;;;;5004283;28;20068;-53
2023/07/22 07:25:30;;;;;;;82.60;7.10;;;;;;;;;;5008524;28;20041;-53
2023/07/22 07:27:56;;;;;;;121.70;87.68;;;;;;;;;;5007679;28;20256;-53
2023/07/22 07:30:21;;;;;;;66.32;15.95;;;;;;;;;;5005667;28;20084;-53
2023/07/22 07:32:46;;;;;;;75.22;7.13;;;;;;;;;;5005301;28;20025;-54
2023/07/22 07:35:11;;;;;;;112.43;10.17;;;;;;;;;;5005828;28;20843;-53
2023/07/22 07:37:37;;;;;;;61.87;6.40;;;;;;;;;;5006036;28;20268;-54
2023/07/22 07:40:03;;;;;;;149.37;43.20;;;;;;;;;;5003743;28;20271;-54
2023/07/22 07:42:28;;;;;;;94.15;35.17;;;;;;;;;;5005340;28;20288;-54
2023/07/22 07:44:54;;;;;;;60.05;6.60;;;;;;;;;;5005673;28;20017;-54
2023/07/22 07:47:19;;;;;;;71.00;7.28;;;;;;;;;;5003578;28;20037;-53
2023/07/22 07:49:45;;;;;;;90.03;51.53;;;;;;;;;;5006147;28;20030;-53
2023/07/22 07:52:10;;;;;;;88.13;8.52;;;;;;;;;;5003640;28;20385;-53
2023/07/22 07:54:35;;;;;;;84.07;20.90;;;;;;;;;;5004458;28;20030;-53
2023/07/22 07:57:00;;;;;;;56.07;6.37;;;;;;;;;;5006131;28;20100;-53
2023/07/22 07:59:26;;;;;;;72.33;22.80;;;;;;;;;;5004720;28;20497;-54
2023/07/22 08:01:51;;;;;;;68.75;7.20;;;;;;;;;;5003798;28;20695;-54
2023/07/22 08:04:17;;;;;;;236.30;175.83;;;;;;;;;;5005481;28;20399;-54
2023/07/22 08:06:42;;;;;;;58.08;6.15;;;;;;;;;;5005422;28;20030;-54
2023/07/22 08:09:10;;;;;;;146.07;40.92;;;;;;;;;;5002274;28;20187;-53
2023/07/22 08:11:36;;;;;;;62.72;7.50;;;;;;;;;;5008023;28;20030;-54
2023/07/22 08:14:01;;;;;;;68.40;10.55;;;;;;;;;;5004596;28;20030;-53
2023/07/22 08:16:27;;;;;;;115.53;67.45;;;;;;;;;;5005627;28;20037;-54
2023/07/22 08:18:53;;;;;;;64.10;7.70;;;;;;;;;;5004663;28;20045;-53
2023/07/22 08:21:19;;;;;;;109.35;10.07;;;;;;;;;;5004470;28;20133;-53
2023/07/22 08:23:46;;;;;;;65.00;6.93;;;;;;;;;;5006412;28;20101;-54
2023/07/22 08:26:12;;;;;;;92.15;13.18;;;;;;;;;;5004694;28;20125;-54
2023/07/22 08:28:37;;;;;;;85.47;22.38;;;;;;;;;;5005804;28;20025;-54
2023/07/22 08:31:02;;;;;;;87.47;8.52;;;;;;;;;;5003229;28;20120;-53
2023/07/22 08:33:28;;;;;;;85.63;20.43;;;;;;;;;;5008547;28;20088;-54
2023/07/22 08:35:53;;;;;;;116.30;37.78;;;;;;;;;;5007276;28;20296;-54
2023/07/22 08:38:18;;;;;;;230.43;158.60;;;;;;;;;;5005452;28;20017;-54
2023/07/22 08:40:44;;;;;;;126.93;89.80;;;;;;;;;;5005128;28;20084;-54
2023/07/22 08:43:10;;;;;;;236.13;123.40;;;;;;;;;;5004293;28;20040;-54
2023/07/22 08:45:36;;;;;;;290.95;261.90;;;;;;;;;;5001636;28;20482;-54
2023/07/22 08:48:09;;;;;;;61.63;9.32;;;;;;;;;;5005675;28;20018;-54
2023/07/22 08:50:55;;;;;;;104.45;32.13;;;;;;;;;;5004283;28;20033;-54
2023/07/22 08:53:20;;;;;;;318.73;271.08;;;;;;;;;;5003388;28;20432;-54
2023/07/22 08:55:46;;;;;;;264.60;237.02;;;;;;;;;;5004663;28;20686;-54
2023/07/22 08:58:13;;;;;;;254.52;213.38;;;;;;;;;;5005111;28;20025;-54
2023/07/22 09:00:39;;;;;;;124.30;78.50;;;;;;;;;;5004228;28;20469;-54
2023/07/22 09:03:04;;;;;;;256.08;177.88;;;;;;;;;;5003952;28;20422;-54
2023/07/22 09:05:31;;;;;;;265.92;232.45;;;;;;;;;;5008990;28;20500;-54
2023/07/22 09:07:56;;;;;;;266.15;235.60;;;;;;;;;;5008560;28;20102;-54
2023/07/22 09:10:22;;;;;;;322.65;210.93;;;;;;;;;;5007104;28;20045;-54
2023/07/22 09:12:48;;;;;;;309.85;281.05;;;;;;;;;;5008318;28;20165;-54
2023/07/22 09:15:13;;;;;;;246.43;206.43;;;;;;;;;;5005763;28;20417;-54
2023/07/22 09:17:39;;;;;;;334.27;295.20;;;;;;;;;;5007723;28;20032;-54
2023/07/22 09:20:05;;;;;;;397.88;362.00;;;;;;;;;;5006590;28;20531;-54
2023/07/22 09:22:31;;;;;;;333.17;299.40;;;;;;;;;;5008854;28;20413;-53
2023/07/22 09:25:15;;;;;;;338.27;302.92;;;;;;;;;;5008150;28;20371;-54
2023/07/22 09:27:40;;;;;;;312.58;273.90;;;;;;;;;;5008555;28;20116;-54
2023/07/22 09:30:26;;;;;;;392.05;356.35;;;;;;;;;;5006926;28;20026;-54
2023/07/22 09:32:52;;;;;;;313.40;279.10;;;;;;;;;;5004290;28;20134;-54
2023/07/22 09:35:18;;;;;;;390.42;311.02;;;;;;;;;;5004520;28;20028;-54
2023/07/22 09:37:44;;;;;;;342.20;310.95;;;;;;;;;;5008519;28;20527;-54
2023/07/22 09:40:16;;;;;;;391.70;329.42;;;;;;;;;;5005757;28;20033;-54
2023/07/22 09:42:45;;;;;;;327.60;293.80;;;;;;;;;;5008300;28;20065;-54
2023/07/22 09:45:10;;;;;;;336.77;301.90;;;;;;;;;;5007163;28;20025;-54
2023/07/22 09:47:40;;;;;;;359.37;324.33;;;;;;;;;;5006876;28;20376;-54
2023/07/22 09:50:06;;;;;;;297.30;245.15;;;;;;;;;;5008786;28;20028;-54
2023/07/22 09:52:31;;;;;;;396.58;356.50;;;;;;;;;;5009327;28;20030;-55
2023/07/22 09:54:58;;;;;;;388.83;350.67;;;;;;;;;;5007842;28;20026;-54
2023/07/22 09:57:24;;;;;;;466.33;368.02;;;;;;;;;;5006696;28;20276;-55
2023/07/22 09:59:50;;;;;;;450.30;301.67;;;;;;;;;;5010742;28;20075;-54
2023/07/22 10:02:17;;;;;;;564.90;514.50;;;;;;;;;;5004774;28;20073;-54
2023/07/22 10:04:43;;;;;;;459.75;421.48;;;;;;;;;;5006757;28;20025;-55
2023/07/22 10:07:09;;;;;;;360.98;323.02;;;;;;;;;;5008170;28;20037;-53
2023/07/22 10:09:36;;;;;;;368.75;329.85;;;;;;;;;;5008362;28;20072;-52
2023/07/22 10:12:03;;;;;;;443.15;402.75;;;;;;;;;;5007904;28;20088;-53
2023/07/22 10:14:29;;;;;;;386.88;347.30;;;;;;;;;;5006599;28;20031;-52
2023/07/22 10:16:54;;;;;;;452.20;407.50;;;;;;;;;;5007036;28;20033;-51
2023/07/22 10:19:21;;;;;;;375.93;336.13;;;;;;;;;;5007753;28;20028;-52
2023/07/22 10:21:46;;;;;;;425.35;388.33;;;;;;;;;;5009466;28;20025;-53
2023/07/22 10:24:12;;;;;;;486.65;438.05;;;;;;;;;;5008064;28;20029;-52
2023/07/22 10:26:39;;;;;;;509.02;467.52;;;;;;;;;;5007982;28;20522;-52
2023/07/22 10:29:04;;;;;;;474.55;434.48;;;;;;;;;;5007583;28;20407;-52
2023/07/22 10:31:30;;;;;;;492.23;449.20;;;;;;;;;;5005507;28;20037;-52
2023/07/22 10:33:56;;;;;;;500.55;460.27;;;;;;;;;;5006619;28;20080;-52
2023/07/22 10:36:28;;;;;;;439.00;396.90;;;;;;;;;;5005562;28;20496;-52
2023/07/22 10:38:57;;;;;;;439.63;400.05;;;;;;;;;;5009324;28;20079;-52
2023/07/22 10:41:22;;;;;;;422.45;379.15;;;;;;;;;;5005697;28;20542;-52
2023/07/22 10:43:57;;;;;;;415.63;367.03;;;;;;;;;;5007652;28;20086;-52
2023/07/22 10:46:36;;;;;;;500.42;454.70;;;;;;;;;;5006042;28;20885;-54
2023/07/22 10:49:27;;;;;;;479.25;438.20;;;;;;;;;;5007399;28;20531;-54
2023/07/22 10:51:52;;;;;;;445.20;405.35;;;;;;;;;;5006517;28;20483;-55
2023/07/22 10:54:34;;;;;;;472.33;397.50;;;;;;;;;;5006542;28;20025;-54
2023/07/22 10:57:06;;;;;;;330.92;294.55;;;;;;;;;;5006274;28;20311;-54
2023/07/22 10:59:33;;;;;;;266.30;177.65;;;;;;;;;;5004853;28;20147;-52
2023/07/22 11:01:58;;;;;;;383.30;342.35;;;;;;;;;;5007114;28;20026;-52
2023/07/22 11:04:35;;;;;;;384.20;344.87;;;;;;;;;;5005574;28;20044;-52
2023/07/22 11:07:04;;;;;;;279.58;225.45;;;;;;;;;;5005557;28;20375;-52
2023/07/22 11:11:54;;;;;;;296.63;239.60;;;;;;;;;;5005909;28;20076;-54
2023/07/22 11:14:24;;;;;;;368.13;313.50;;;;;;;;;;5006447;28;20842;-54
2023/07/22 11:16:49;;;;;;;294.95;262.60;;;;;;;;;;5007543;28;20053;-54
2023/07/22 11:19:15;;;;;;;416.02;340.63;;;;;;;;;;5007015;28;20100;-54
2023/07/22 11:21:41;;;;;;;137.60;81.25;;;;;;;;;;5007531;28;20026;-54
2023/07/22 11:24:07;;;;;;;295.70;265.70;;;;;;;;;;5006656;28;20347;-54
2023/07/22 11:26:32;;;;;;;307.33;274.75;;;;;;;;;;5005164;28;20034;-52
2023/07/22 11:28:59;;;;;;;316.63;283.27;;;;;;;;;;5008025;28;20021;-52
2023/07/22 11:31:34;;;;;;;469.60;425.45;;;;;;;;;;5005980;28;20060;-52
2023/07/22 11:33:59;;;;;;;531.20;479.45;;;;;;;;;;5006518;28;20029;-55
2023/07/22 11:36:26;;;;;;;443.00;397.98;;;;;;;;;;5005551;28;20049;-53
2023/07/22 11:38:51;;;;;;;433.65;393.20;;;;;;;;;;5007679;28;20029;-52
2023/07/22 11:41:17;;;;;;;393.75;342.13;;;;;;;;;;5005218;28;20033;-52
2023/07/22 11:43:42;;;;;;;442.75;358.13;;;;;;;;;;5007579;28;20201;-52
2023/07/22 11:46:07;;;;;;;352.13;319.60;;;;;;;;;;5007250;28;20057;-52
2023/07/22 11:48:32;;;;;;;465.00;337.60;;;;;;;;;;5006984;28;20053;-53
2023/07/22 11:50:58;;;;;;;355.10;319.43;;;;;;;;;;5008383;28;20280;-53
2023/07/22 11:53:27;;;;;;;271.50;64.25;;;;;;;;;;5013512;28;20292;-53
2023/07/22 11:55:53;;;;;;;517.33;468.70;;;;;;;;;;5006406;28;20124;-55
2023/07/22 11:58:26;;;;;;;522.70;473.50;;;;;;;;;;5008567;28;20140;-52
2023/07/22 12:01:09;;;;;;;400.33;362.38;;;;;;;;;;5006200;28;20038;-52
2023/07/22 12:03:35;;;;;;;425.55;376.15;;;;;;;;;;5003390;28;20080;-52
2023/07/22 12:06:02;;;;;;;491.15;388.67;;;;;;;;;;5004770;28;20037;-52
2023/07/22 12:08:27;;;;;;;519.15;463.52;;;;;;;;;;5006470;28;20056;-52
2023/07/22 12:10:56;;;;;;;275.27;198.03;;;;;;;;;;5006442;28;20116;-52
2023/07/22 12:13:21;;;;;;;376.98;314.02;;;;;;;;;;5003934;28;20026;-52
2023/07/22 12:15:58;;;;;;;535.63;428.63;;;;;;;;;;5005468;28;20037;-52
2023/07/22 12:18:24;;;;;;;421.33;353.15;;;;;;;;;;5004257;28;20024;-52
2023/07/22 12:20:49;;;;;;;424.83;387.03;;;;;;;;;;5005667;28;20041;-52
2023/07/22 12:23:15;;;;;;;476.83;436.98;;;;;;;;;;5006750;28;20276;-52
2023/07/22 12:25:40;;;;;;;474.27;428.58;;;;;;;;;;5004027;28;20041;-52
2023/07/22 12:28:06;;;;;;;477.20;341.63;;;;;;;;;;5006267;28;20021;-52
2023/07/22 12:30:31;;;;;;;411.55;354.95;;;;;;;;;;5003653;28;20048;-52
2023/07/22 12:32:56;;;;;;;501.63;458.33;;;;;;;;;;5006983;28;20482;-52
2023/07/22 12:35:22;;;;;;;477.57;421.33;;;;;;;;;;5002891;28;20021;-52
2023/07/22 12:37:47;;;;;;;515.72;473.83;;;;;;;;;;5005883;28;20045;-52
2023/07/22 12:40:12;;;;;;;513.20;464.42;;;;;;;;;;5009922;28;20547;-52
2023/07/22 12:42:38;;;;;;;461.88;423.35;;;;;;;;;;5008600;28;20104;-52
2023/07/22 12:45:04;;;;;;;451.17;406.53;;;;;;;;;;5009163;28;20040;-52
2023/07/22 12:47:29;;;;;;;482.77;253.30;;;;;;;;;;5009696;28;20061;-52
2023/07/22 12:49:55;;;;;;;458.88;410.25;;;;;;;;;;5004721;28;20148;-54
2023/07/22 12:52:20;;;;;;;496.90;445.33;;;;;;;;;;5005595;28;20053;-55
2023/07/22 12:54:45;;;;;;;362.43;326.20;;;;;;;;;;5006475;28;20022;-55
2023/07/22 12:57:10;;;;;;;466.20;423.38;;;;;;;;;;5007186;28;20037;-55
2023/07/22 12:59:36;;;;;;;508.13;403.17;;;;;;;;;;5006469;28;20450;-55
2023/07/22 13:02:01;;;;;;;473.75;429.92;;;;;;;;;;5006216;28;20176;-55
2023/07/22 13:04:26;;;;;;;418.38;285.38;;;;;;;;;;5006048;28;20450;-60
2023/07/22 13:06:51;;;;;;;455.47;409.20;;;;;;;;;;5007941;28;20527;-55
2023/07/22 13:09:17;;;;;;;502.20;447.93;;;;;;;;;;5006404;28;20379;-56
2023/07/22 13:11:42;;;;;;;467.35;425.17;;;;;;;;;;5004685;28;20056;-56
2023/07/22 13:14:07;;;;;;;513.00;468.27;;;;;;;;;;5005149;28;20479;-55
2023/07/22 13:16:33;;;;;;;371.37;247.87;;;;;;;;;;5005405;28;20038;-56
2023/07/22 13:19:00;;;;;;;399.00;307.90;;;;;;;;;;5006313;28;20030;-57
2023/07/22 13:21:25;;;;;;;414.45;370.00;;;;;;;;;;5007730;28;20129;-56
2023/07/22 13:23:51;;;;;;;359.67;260.73;;;;;;;;;;5007304;28;20334;-57
2023/07/22 13:26:16;;;;;;;463.87;422.57;;;;;;;;;;5006754;28;20064;-56
2023/07/22 13:28:41;;;;;;;444.83;402.33;;;;;;;;;;5005077;28;20268;-56
2023/07/22 13:31:06;;;;;;;466.43;290.70;;;;;;;;;;5007282;28;20037;-56
2023/07/22 13:33:32;;;;;;;442.38;388.88;;;;;;;;;;5006902;28;20036;-56
2023/07/22 13:35:57;;;;;;;488.60;444.02;;;;;;;;;;5006811;28;20064;-55
2023/07/22 13:38:22;;;;;;;414.63;372.97;;;;;;;;;;5007185;28;20080;-54
2023/07/22 13:40:48;;;;;;;319.27;234.23;;;;;;;;;;5007187;28;20081;-55
2023/07/22 13:43:13;;;;;;;483.17;431.45;;;;;;;;;;5010012;28;20043;-55
2023/07/22 13:45:38;;;;;;;466.77;303.60;;;;;;;;;;5004933;28;20862;-55
2023/07/22 13:48:04;;;;;;;425.33;381.37;;;;;;;;;;5006817;28;20527;-55
2023/07/22 13:50:29;;;;;;;503.25;455.02;;;;;;;;;;5003737;28;20260;-54
2023/07/22 13:52:54;;;;;;;460.60;414.10;;;;;;;;;;5007359;28;20040;-55
2023/07/22 13:55:19;;;;;;;475.97;433.60;;;;;;;;;;5005002;28;20053;-54
2023/07/22 13:57:44;;;;;;;490.67;447.90;;;;;;;;;;5005642;28;20256;-54
2023/07/22 14:00:10;;;;;;;402.47;361.20;;;;;;;;;;5006933;28;20502;-54
2023/07/22 14:02:37;;;;;;;438.73;386.05;;;;;;;;;;5006051;28;20364;-54
2023/07/22 14:05:03;;;;;;;509.58;464.33;;;;;;;;;;5004923;28;20079;-55
2023/07/22 14:07:28;;;;;;;444.83;335.77;;;;;;;;;;5004207;28;20144;-53